Terminal Aerodrome Forecast
Issued by NWS

Home | Current Version | Previous Version | Text Only | Print | Product List | Glossary On
Versions: 1 2 3 4 5 6 7 8 9 10 11 12 13 14 15 16
178
FTUS46 KLOX 241138
TAFPMD
TAF
KPMD 241138Z 2412/2512 19005KT P6SM SCT140
     FM241400 23007KT P6SM SCT140
     FM241800 24014KT 6SM FU BKN070 BKN120
     FM242100 24020G30KT 6SM FU BKN120
     FM250300 28010KT P6SM SCT140
     FM250700 27005KT P6SM SCT140=

USA.gov is the U.S. government's official web portal to all federal, state and local government web resources and services.